EJM337 KHND-KVNY
Flight info
| Callsign | EJM337 |
|---|---|
| Flight time | 0h 45m |
| Altitude | 32000 |
| Route | SLVRR KREME JANNY5 |
| Aircraft | E55P/M-SBDFGHJ2RWY/LB2 |
Departure
| Time | 2026-04-26 01:35 |
|---|---|
| Airport | Henderson Executive Airport (KHND) |
Arrival
| Time | 2026-04-26 02:20 |
|---|---|
| Airport | Van Nuys Airport (KVNY) |
| Time | Latitude | Longitude | Altitude | Speed | Heading |
|---|---|---|---|---|---|
| 2026-04-26 00:51 | 35.97728 | -115.13820 | 2417 ft | 0 kts | 180° |
| 2026-04-26 01:32 | 35.97727 | -115.13820 | 2417 ft | 0 kts | 180° |
| 2026-04-26 01:32 | 35.97709 | -115.13814 | 2418 ft | 5 kts | 130° |
| 2026-04-26 01:32 | 35.97700 | -115.13742 | 2418 ft | 10 kts | 94° |
| 2026-04-26 01:33 | 35.97746 | -115.13690 | 2417 ft | 12 kts | 3° |
| 2026-04-26 01:33 | 35.97854 | -115.13689 | 2413 ft | 18 kts | 0° |
| 2026-04-26 01:33 | 35.97979 | -115.13688 | 2409 ft | 16 kts | 0° |
| 2026-04-26 01:33 | 35.98083 | -115.13657 | 2405 ft | 15 kts | 81° |
| 2026-04-26 01:34 | 35.98067 | -115.13535 | 2405 ft | 11 kts | 157° |
| 2026-04-26 01:34 | 35.98041 | -115.13534 | 2406 ft | 17 kts | 182° |
| 2026-04-26 01:34 | 35.97642 | -115.13539 | 2421 ft | 94 kts | 180° |
| 2026-04-26 01:34 | 35.96811 | -115.13547 | 2618 ft | 133 kts | 185° |
| 2026-04-26 01:35 | 35.95827 | -115.13583 | 3197 ft | 148 kts | 187° |
| 2026-04-26 01:35 | 35.94802 | -115.13677 | 3901 ft | 151 kts | 195° |
| 2026-04-26 01:35 | 35.93877 | -115.14306 | 4500 ft | 161 kts | 227° |
| 2026-04-26 01:35 | 35.92990 | -115.15352 | 4778 ft | 197 kts | 213° |
| 2026-04-26 01:36 | 35.91728 | -115.16383 | 4871 ft | 240 kts | 218° |
| 2026-04-26 01:36 | 35.90362 | -115.17732 | 5473 ft | 256 kts | 219° |
| 2026-04-26 01:36 | 35.89029 | -115.19086 | 6580 ft | 250 kts | 219° |
| 2026-04-26 01:37 | 35.86378 | -115.21791 | 8425 ft | 253 kts | 219° |
| 2026-04-26 01:37 | 35.85011 | -115.23188 | 9259 ft | 258 kts | 219° |
| 2026-04-26 01:37 | 35.83662 | -115.24560 | 9905 ft | 269 kts | 219° |
| 2026-04-26 01:37 | 35.82202 | -115.26051 | 10614 ft | 279 kts | 219° |
| 2026-04-26 01:38 | 35.80720 | -115.27560 | 11550 ft | 279 kts | 219° |
| 2026-04-26 01:38 | 35.79250 | -115.29060 | 12524 ft | 277 kts | 219° |
| 2026-04-26 01:38 | 35.77777 | -115.30559 | 13433 ft | 278 kts | 219° |
| 2026-04-26 01:38 | 35.76283 | -115.32085 | 14274 ft | 281 kts | 219° |
| 2026-04-26 01:39 | 35.74784 | -115.33608 | 15135 ft | 283 kts | 220° |
| 2026-04-26 01:39 | 35.73256 | -115.35168 | 15948 ft | 286 kts | 220° |
| 2026-04-26 01:39 | 35.71721 | -115.36728 | 16757 ft | 289 kts | 220° |
| 2026-04-26 01:39 | 35.70193 | -115.38281 | 17549 ft | 291 kts | 220° |
| 2026-04-26 01:40 | 35.68636 | -115.39864 | 18310 ft | 294 kts | 220° |
| 2026-04-26 01:40 | 35.67042 | -115.41481 | 19072 ft | 296 kts | 221° |
| 2026-04-26 01:40 | 35.65469 | -115.43079 | 19862 ft | 297 kts | 221° |
| 2026-04-26 01:40 | 35.63885 | -115.44690 | 20574 ft | 299 kts | 220° |
| 2026-04-26 01:41 | 35.62270 | -115.46327 | 21301 ft | 301 kts | 221° |
| 2026-04-26 01:41 | 35.60667 | -115.47949 | 21990 ft | 303 kts | 221° |
| 2026-04-26 01:41 | 35.59034 | -115.49604 | 22655 ft | 305 kts | 220° |
| 2026-04-26 01:41 | 35.57397 | -115.51260 | 23269 ft | 308 kts | 221° |
| 2026-04-26 01:42 | 35.55734 | -115.52937 | 23932 ft | 310 kts | 221° |
| 2026-04-26 01:42 | 35.54066 | -115.54626 | 24595 ft | 311 kts | 221° |
| 2026-04-26 01:42 | 35.52399 | -115.56316 | 25302 ft | 311 kts | 221° |
| 2026-04-26 01:42 | 35.50738 | -115.57990 | 26035 ft | 309 kts | 221° |
| 2026-04-26 01:43 | 35.49105 | -115.59633 | 26805 ft | 305 kts | 221° |
| 2026-04-26 01:43 | 35.47471 | -115.61285 | 27500 ft | 304 kts | 221° |
| 2026-04-26 01:43 | 35.45841 | -115.62931 | 28182 ft | 302 kts | 221° |
| 2026-04-26 01:43 | 35.44220 | -115.64565 | 28884 ft | 300 kts | 221° |
| 2026-04-26 01:44 | 35.42618 | -115.66178 | 29604 ft | 297 kts | 220° |
| 2026-04-26 01:44 | 35.41022 | -115.67786 | 30311 ft | 294 kts | 220° |
| 2026-04-26 01:44 | 35.39561 | -115.69254 | 30919 ft | 291 kts | 221° |
| 2026-04-26 01:44 | 35.37947 | -115.70873 | 31553 ft | 288 kts | 221° |
| 2026-04-26 01:45 | 35.36438 | -115.72395 | 31750 ft | 298 kts | 221° |
| 2026-04-26 01:45 | 35.34840 | -115.74000 | 31787 ft | 311 kts | 221° |
| 2026-04-26 01:45 | 35.33186 | -115.75819 | 31795 ft | 325 kts | 224° |
| 2026-04-26 01:45 | 35.31494 | -115.77720 | 31800 ft | 338 kts | 224° |
| 2026-04-26 01:46 | 35.29721 | -115.79713 | 31788 ft | 351 kts | 224° |
| 2026-04-26 01:46 | 35.27893 | -115.81754 | 31784 ft | 362 kts | 223° |
| 2026-04-26 01:46 | 35.26023 | -115.83844 | 31773 ft | 373 kts | 223° |
| 2026-04-26 01:47 | 35.22128 | -115.88203 | 31762 ft | 380 kts | 224° |
| 2026-04-26 01:47 | 35.18258 | -115.92521 | 31745 ft | 372 kts | 223° |
| 2026-04-26 01:48 | 35.14467 | -115.96739 | 31742 ft | 365 kts | 224° |
| 2026-04-26 01:48 | 35.10744 | -116.00892 | 31739 ft | 361 kts | 224° |
| 2026-04-26 01:49 | 35.07039 | -116.05012 | 31751 ft | 361 kts | 224° |
| 2026-04-26 01:49 | 35.03309 | -116.09152 | 31752 ft | 362 kts | 224° |
| 2026-04-26 01:50 | 34.99589 | -116.13283 | 31749 ft | 363 kts | 224° |
| 2026-04-26 01:50 | 34.95834 | -116.17433 | 31742 ft | 363 kts | 224° |
| 2026-04-26 01:51 | 34.92137 | -116.21626 | 31723 ft | 363 kts | 230° |
| 2026-04-26 01:51 | 34.90928 | -116.24305 | 31733 ft | 361 kts | 244° |
| 2026-04-26 01:51 | 34.89900 | -116.26994 | 31281 ft | 349 kts | 241° |
| 2026-04-26 01:51 | 34.88846 | -116.29684 | 30323 ft | 349 kts | 242° |
| 2026-04-26 01:52 | 34.87825 | -116.32321 | 29658 ft | 343 kts | 242° |
| 2026-04-26 01:52 | 34.86818 | -116.34917 | 28993 ft | 336 kts | 242° |
| 2026-04-26 01:52 | 34.85928 | -116.37204 | 28478 ft | 328 kts | 242° |
| 2026-04-26 01:52 | 34.84963 | -116.39685 | 27904 ft | 321 kts | 242° |
| 2026-04-26 01:53 | 34.84056 | -116.42029 | 27371 ft | 314 kts | 242° |
| 2026-04-26 01:53 | 34.83193 | -116.44249 | 26846 ft | 309 kts | 242° |
| 2026-04-26 01:53 | 34.82281 | -116.46583 | 26293 ft | 305 kts | 242° |
| 2026-04-26 01:53 | 34.81352 | -116.48950 | 25754 ft | 319 kts | 242° |
| 2026-04-26 01:54 | 34.80392 | -116.51424 | 25224 ft | 331 kts | 242° |
| 2026-04-26 01:54 | 34.79385 | -116.53986 | 24693 ft | 342 kts | 242° |
| 2026-04-26 01:54 | 34.78585 | -116.56743 | 24176 ft | 356 kts | 258° |
| 2026-04-26 01:54 | 34.78355 | -116.59761 | 23822 ft | 358 kts | 258° |
| 2026-04-26 01:55 | 34.78063 | -116.62622 | 23531 ft | 359 kts | 259° |
| 2026-04-26 01:55 | 34.77781 | -116.65608 | 23222 ft | 358 kts | 258° |
| 2026-04-26 01:55 | 34.77492 | -116.68609 | 22930 ft | 358 kts | 258° |
| 2026-04-26 01:55 | 34.77199 | -116.71646 | 22625 ft | 357 kts | 258° |
| 2026-04-26 01:56 | 34.76904 | -116.74632 | 22340 ft | 357 kts | 258° |
| 2026-04-26 01:56 | 34.76615 | -116.77608 | 22046 ft | 356 kts | 258° |
| 2026-04-26 01:56 | 34.76324 | -116.80597 | 21900 ft | 352 kts | 258° |
| 2026-04-26 01:56 | 34.76034 | -116.83572 | 21860 ft | 351 kts | 258° |
| 2026-04-26 01:57 | 34.75750 | -116.86472 | 21854 ft | 349 kts | 258° |
| 2026-04-26 01:57 | 34.75451 | -116.89417 | 21842 ft | 347 kts | 258° |
| 2026-04-26 01:57 | 34.75161 | -116.92326 | 21849 ft | 346 kts | 258° |
| 2026-04-26 01:57 | 34.74866 | -116.95213 | 21847 ft | 344 kts | 258° |
| 2026-04-26 01:58 | 34.74577 | -116.98104 | 21838 ft | 343 kts | 258° |
| 2026-04-26 01:58 | 34.74284 | -117.00956 | 21837 ft | 342 kts | 258° |
| 2026-04-26 01:58 | 34.73995 | -117.03821 | 21835 ft | 342 kts | 258° |
| 2026-04-26 01:58 | 34.73705 | -117.06687 | 21836 ft | 341 kts | 257° |
| 2026-04-26 01:59 | 34.73409 | -117.09541 | 21839 ft | 340 kts | 258° |
| 2026-04-26 01:59 | 34.73119 | -117.12382 | 21836 ft | 339 kts | 258° |
| 2026-04-26 01:59 | 34.72827 | -117.15206 | 21840 ft | 339 kts | 258° |
| 2026-04-26 01:59 | 34.72536 | -117.18057 | 21855 ft | 338 kts | 258° |
| 2026-04-26 02:00 | 34.72243 | -117.20883 | 21838 ft | 338 kts | 258° |
| 2026-04-26 02:00 | 34.71952 | -117.23730 | 21847 ft | 337 kts | 257° |
| 2026-04-26 02:00 | 34.71658 | -117.26566 | 21853 ft | 337 kts | 258° |
| 2026-04-26 02:00 | 34.71361 | -117.29376 | 21861 ft | 336 kts | 258° |
| 2026-04-26 02:01 | 34.71074 | -117.32176 | 21858 ft | 336 kts | 258° |
| 2026-04-26 02:01 | 34.70780 | -117.34992 | 21869 ft | 335 kts | 257° |
| 2026-04-26 02:01 | 34.70486 | -117.37781 | 21859 ft | 335 kts | 258° |
| 2026-04-26 02:01 | 34.70203 | -117.40490 | 21679 ft | 335 kts | 258° |
| 2026-04-26 02:02 | 34.69914 | -117.43254 | 21471 ft | 326 kts | 258° |
| 2026-04-26 02:02 | 34.69632 | -117.45959 | 21270 ft | 318 kts | 258° |
| 2026-04-26 02:02 | 34.69353 | -117.48592 | 21063 ft | 312 kts | 257° |
| 2026-04-26 02:02 | 34.69078 | -117.51191 | 20728 ft | 309 kts | 257° |
| 2026-04-26 02:03 | 34.68801 | -117.53758 | 20334 ft | 310 kts | 258° |
| 2026-04-26 02:03 | 34.68525 | -117.56351 | 19878 ft | 311 kts | 258° |
| 2026-04-26 02:03 | 34.68247 | -117.58952 | 19421 ft | 312 kts | 258° |
| 2026-04-26 02:03 | 34.67968 | -117.61560 | 18951 ft | 313 kts | 258° |
| 2026-04-26 02:04 | 34.67686 | -117.64195 | 18485 ft | 313 kts | 258° |
| 2026-04-26 02:04 | 34.67410 | -117.66817 | 18017 ft | 313 kts | 258° |
| 2026-04-26 02:04 | 34.67130 | -117.69473 | 17549 ft | 313 kts | 258° |
| 2026-04-26 02:04 | 34.66857 | -117.72072 | 17086 ft | 312 kts | 258° |
| 2026-04-26 02:05 | 34.66581 | -117.74698 | 16614 ft | 311 kts | 258° |
| 2026-04-26 02:05 | 34.66346 | -117.76921 | 16213 ft | 310 kts | 258° |
| 2026-04-26 02:05 | 34.66156 | -117.78730 | 15955 ft | 307 kts | 259° |
| 2026-04-26 02:05 | 34.65886 | -117.81313 | 15594 ft | 303 kts | 259° |
| 2026-04-26 02:06 | 34.65663 | -117.83459 | 15300 ft | 299 kts | 259° |
| 2026-04-26 02:06 | 34.65530 | -117.84736 | 15155 ft | 296 kts | 259° |
| 2026-04-26 02:06 | 34.65271 | -117.87247 | 14889 ft | 290 kts | 259° |
| 2026-04-26 02:06 | 34.65022 | -117.89687 | 14611 ft | 285 kts | 259° |
| 2026-04-26 02:07 | 34.64807 | -117.91788 | 14397 ft | 283 kts | 259° |
| 2026-04-26 02:07 | 34.64565 | -117.94155 | 14175 ft | 284 kts | 260° |
| 2026-04-26 02:07 | 34.64319 | -117.96545 | 13926 ft | 284 kts | 260° |
| 2026-04-26 02:07 | 34.64071 | -117.98931 | 13648 ft | 284 kts | 260° |
| 2026-04-26 02:08 | 34.63827 | -118.01279 | 13407 ft | 283 kts | 261° |
| 2026-04-26 02:08 | 34.63578 | -118.03667 | 13161 ft | 283 kts | 261° |
| 2026-04-26 02:08 | 34.63329 | -118.06038 | 12914 ft | 282 kts | 261° |
| 2026-04-26 02:08 | 34.63079 | -118.08410 | 12666 ft | 282 kts | 261° |
| 2026-04-26 02:09 | 34.62826 | -118.10803 | 12416 ft | 282 kts | 261° |
| 2026-04-26 02:09 | 34.62578 | -118.13147 | 12171 ft | 281 kts | 261° |
| 2026-04-26 02:09 | 34.62303 | -118.15515 | 11915 ft | 280 kts | 256° |
| 2026-04-26 02:09 | 34.61377 | -118.17550 | 11673 ft | 278 kts | 229° |
| 2026-04-26 02:10 | 34.60370 | -118.19524 | 11431 ft | 276 kts | 250° |
| 2026-04-26 02:10 | 34.59764 | -118.21749 | 11191 ft | 276 kts | 252° |
| 2026-04-26 02:10 | 34.59233 | -118.23997 | 10942 ft | 276 kts | 254° |
| 2026-04-26 02:10 | 34.58719 | -118.26256 | 10627 ft | 278 kts | 254° |
| 2026-04-26 02:11 | 34.58212 | -118.28519 | 10307 ft | 276 kts | 255° |
| 2026-04-26 02:11 | 34.57718 | -118.30727 | 9977 ft | 271 kts | 255° |
| 2026-04-26 02:11 | 34.57223 | -118.32938 | 9650 ft | 267 kts | 255° |
| 2026-04-26 02:11 | 34.56740 | -118.35096 | 9327 ft | 263 kts | 255° |
| 2026-04-26 02:12 | 34.56278 | -118.37155 | 9053 ft | 260 kts | 255° |
| 2026-04-26 02:12 | 34.55804 | -118.39268 | 8723 ft | 257 kts | 255° |
| 2026-04-26 02:12 | 34.55339 | -118.41333 | 8395 ft | 255 kts | 255° |
| 2026-04-26 02:12 | 34.54877 | -118.43386 | 8065 ft | 252 kts | 255° |
| 2026-04-26 02:13 | 34.54416 | -118.45441 | 7713 ft | 251 kts | 255° |
| 2026-04-26 02:13 | 34.53958 | -118.47470 | 7395 ft | 249 kts | 254° |
| 2026-04-26 02:13 | 34.53041 | -118.49226 | 7045 ft | 251 kts | 221° |
| 2026-04-26 02:13 | 34.51459 | -118.50079 | 6753 ft | 253 kts | 200° |
| 2026-04-26 02:14 | 34.49790 | -118.50815 | 6438 ft | 251 kts | 204° |
| 2026-04-26 02:14 | 34.48146 | -118.51505 | 6098 ft | 246 kts | 195° |
| 2026-04-26 02:14 | 34.46467 | -118.51462 | 5766 ft | 242 kts | 177° |
| 2026-04-26 02:14 | 34.44793 | -118.51293 | 5428 ft | 235 kts | 179° |
| 2026-04-26 02:15 | 34.43164 | -118.51133 | 5093 ft | 230 kts | 179° |
| 2026-04-26 02:15 | 34.41582 | -118.50981 | 4764 ft | 226 kts | 179° |
| 2026-04-26 02:15 | 34.40017 | -118.50829 | 4434 ft | 223 kts | 179° |
| 2026-04-26 02:15 | 34.38474 | -118.50685 | 4104 ft | 220 kts | 179° |
| 2026-04-26 02:16 | 34.36971 | -118.50542 | 3826 ft | 215 kts | 179° |
| 2026-04-26 02:16 | 34.35530 | -118.50408 | 3788 ft | 199 kts | 179° |
| 2026-04-26 02:16 | 34.34173 | -118.50275 | 3635 ft | 193 kts | 180° |
| 2026-04-26 02:16 | 34.32819 | -118.50153 | 3366 ft | 194 kts | 179° |
| 2026-04-26 02:17 | 34.31467 | -118.50024 | 3067 ft | 191 kts | 179° |
| 2026-04-26 02:17 | 34.30237 | -118.49908 | 2821 ft | 165 kts | 178° |
| 2026-04-26 02:17 | 34.29174 | -118.49809 | 2563 ft | 148 kts | 178° |
| 2026-04-26 02:17 | 34.28197 | -118.49718 | 2325 ft | 134 kts | 177° |
| 2026-04-26 02:18 | 34.27317 | -118.49635 | 2135 ft | 122 kts | 177° |
| 2026-04-26 02:18 | 34.26493 | -118.49559 | 1945 ft | 115 kts | 175° |
| 2026-04-26 02:18 | 34.25693 | -118.49483 | 1771 ft | 114 kts | 175° |
| 2026-04-26 02:18 | 34.24888 | -118.49406 | 1598 ft | 116 kts | 175° |
| 2026-04-26 02:19 | 34.24077 | -118.49322 | 1438 ft | 118 kts | 175° |
| 2026-04-26 02:19 | 34.23246 | -118.49247 | 1233 ft | 120 kts | 176° |
| 2026-04-26 02:19 | 34.22421 | -118.49170 | 1040 ft | 119 kts | 175° |
| 2026-04-26 02:19 | 34.21590 | -118.49093 | 852 ft | 118 kts | 176° |
| 2026-04-26 02:20 | 34.20810 | -118.49018 | 775 ft | 102 kts | 176° |
| 2026-04-26 02:20 | 34.20245 | -118.48963 | 763 ft | 47 kts | 176° |
| 2026-04-26 02:20 | 34.20121 | -118.48925 | 761 ft | 10 kts | 89° |
| 2026-04-26 02:20 | 34.20124 | -118.48877 | 761 ft | 4 kts | 84° |
| 2026-04-26 02:21 | 34.20124 | -118.48875 | 760 ft | 0 kts | 82° |
| 2026-04-26 02:22 | 34.20124 | -118.48874 | 761 ft | 0 kts | 82° |
| 2026-04-26 02:22 | 34.20125 | -118.48872 | 761 ft | 0 kts | 82° |
| 2026-04-26 02:22 | 34.20128 | -118.48862 | 761 ft | 4 kts | 52° |
| 2026-04-26 02:23 | 34.20174 | -118.48852 | 762 ft | 9 kts | 1° |